Alma, AL

9:35 PM CDT on July 28, 2014 (GMT -0500)
Jackson, AL (KALJACKS3) Elev 53 ft | 31.49 °N, 87.90 °W | Change Station

Current weather conditions updated 5 seconds ago

Partly Cloudy
Partly Cloudy
80.5 °F
Feels Like 87 °F
N
0.0
Wind Variable Wind from WSW
Gusts 0.0 mph

Tomorrow is forecast to be nearly the same temperature as today.

Today
High -- | Low -- °F
--% Chance of Precip.
Yesterday
High -- | Low -- °F
Precip. -- in
6:04 AM 7:49 PM
Waxing Crescent, 4% visible
Pressure 29.97 in
Visibility 10.0 miles
Clouds Few 5500 ft
Heat Index 87 °F
Dew Point 77 °F
Humidity 90%
Rainfall 0.00 in
Snow Depth Not available.
UV 0 out of 12
Pollen 4.10 out of 12
Air Quality Not available.
Flu Activity Not available.
METAR KGZH 290153Z AUTO 00000KT 10SM FEW055 25/23 A2998 RMK AO2 SLP147 T02500228

More Conditions Fewer Conditions

Pressure 29.97 in
Visibility 10.0 miles
Clouds Few 5500 ft
Heat Index 87 °F
Dew Point 77 °F
Humidity 90%
Rainfall 0.00 in
Snow Depth Not available.
UV 0 out of 12
Pollen 4.10 out of 12
Air Quality Not available.
Flu Activity Not available.
METAR KGZH 290153Z AUTO 00000KT 10SM FEW055 25/23 A2998 RMK AO2 SLP147 T02500228

More Conditions Fewer Conditions

10-Day Weather Forecast

Almanac

Astronomy

Jul. 28, 2014 Rise Set
Actual Time 6:04 AM CDT 7:49 PM CDT
Civil Twilight 5:38 AM CDT 8:16 PM CDT
Nautical Twilight 5:05 AM CDT 8:48 PM CDT
Astronomical Twilight 4:31 AM CDT 9:22 PM CDT
Moon 7:36 AM CDT (7/28) 8:42 PM CDT (7/28)
Length of Visible Light 14h 38m
Length of Day
13h 44m
Tomorrow will be 1m 21s shorter.
Waxing Crescent, 4% of the Moon is Illuminated
Today
Waxing Crescent
Aug 3
First Quarter
Aug 10
Full
Aug 17
Last Quarter
Aug 25
New

Today's Extremes

State Highs State Lows

Community

WunderPhotos

Upload Photos

1,738,587 photos uploaded!

Nearby

Snow Depth

Station Depth Elevation
No new snow has been reported.

Earthquake Activity

City Distance Mag. Time & Date
No recent earthquake activity has been reported nearby.
Minimum magnitude displayed is 2.5.

Coastal Water Temperatures

Place Temperature
No Stations Reporting

Nearby Weather Stations

Station Location Temp. Heat Index Dew Point Humidity Wind Precip. Elev Updated Type
Jackson, AL, Jackson, AL 80.5 °F 87 °F 77 °F 90% WSW  at  0.0 mph 0.00 in / hr 53 ft 9:34 PM CDT Rapid Fire
Belview Circle, Jackson, AL 75.0 °F 72 °F 75 °F 100% NE  at  0.0 mph 0.00 in / hr 381 ft 9:34 PM CDT Rapid Fire
Perdue Hill, AL 76.4 °F 77 °F 74 °F 92% ESE  at  0.0 mph 0.00 in / hr 70 ft 9:30 PM CDT Normal
HADS MONROEVILLE , Monroeville, AL 81 °F 86 °F 74 °F 77% WSW  at  3 mph 0.00 in / hr 129 ft 8:30 PM CDT MADIS

Show More Stations Show Fewer Stations